Time;durP1;ratioP1;P1;durP2;ratioP2;P2;SDS_P1;SDS_P2;PMS_P1;PMS_P2;Temp;Humidity;BMP_temperature;BMP_pressure;BME280_temperature;BME280_humidity;BME280_pressure;Samples;Min_cycle;Max_cycle;Signal;HPM_P1;HPM_P2
2023/06/03 00:02:22;;;;;;;15.15;5.72;;;;;;;;;;5045210;28;20049;-64
2023/06/03 00:04:52;;;;;;;17.77;6.00;;;;;;;;;;5022210;28;20045;-63
2023/06/03 00:07:23;;;;;;;14.40;5.85;;;;;;;;;;5029040;28;20152;-63
2023/06/03 00:09:53;;;;;;;14.75;5.40;;;;;;;;;;5029037;28;20413;-64
2023/06/03 00:12:23;;;;;;;20.40;6.40;;;;;;;;;;5029223;28;20061;-63
2023/06/03 00:14:53;;;;;;;13.55;6.30;;;;;;;;;;5028970;28;20501;-62
2023/06/03 00:17:26;;;;;;;15.93;6.45;;;;;;;;;;5029175;28;20052;-63
2023/06/03 00:19:57;;;;;;;14.23;5.63;;;;;;;;;;5029412;28;20602;-62
2023/06/03 00:22:28;;;;;;;16.92;6.03;;;;;;;;;;4980472;28;20050;-63
2023/06/03 00:24:58;;;;;;;15.90;6.55;;;;;;;;;;5012921;28;20052;-62
2023/06/03 00:27:28;;;;;;;16.60;6.72;;;;;;;;;;5048531;28;20064;-63
2023/06/03 00:30:00;;;;;;;13.60;6.80;;;;;;;;;;5014955;28;20052;-63
2023/06/03 00:32:30;;;;;;;17.63;6.82;;;;;;;;;;5016407;28;20061;-62
2023/06/03 00:35:00;;;;;;;20.80;7.32;;;;;;;;;;5012202;28;20053;-63
2023/06/03 00:37:31;;;;;;;19.52;7.93;;;;;;;;;;5038990;28;20074;-62
2023/06/03 00:40:01;;;;;;;18.83;7.13;;;;;;;;;;4989231;28;20058;-62
2023/06/03 00:42:31;;;;;;;15.73;6.53;;;;;;;;;;4989665;28;20066;-62
2023/06/03 00:45:04;;;;;;;14.50;6.43;;;;;;;;;;4989471;28;20054;-62
2023/06/03 00:47:34;;;;;;;17.98;7.38;;;;;;;;;;4989144;28;20062;-64
2023/06/03 00:50:07;;;;;;;13.52;7.07;;;;;;;;;;4989318;28;20165;-63
2023/06/03 00:52:39;;;;;;;14.57;6.82;;;;;;;;;;4989259;28;20450;-62
2023/06/03 00:55:10;;;;;;;16.35;6.97;;;;;;;;;;4989306;28;20046;-62
2023/06/03 00:57:40;;;;;;;24.15;8.18;;;;;;;;;;4942403;28;20062;-63
2023/06/03 01:00:11;;;;;;;19.00;7.18;;;;;;;;;;4942538;28;20510;-62
2023/06/03 01:02:43;;;;;;;17.92;6.68;;;;;;;;;;4989343;28;20054;-63
2023/06/03 01:05:15;;;;;;;14.80;6.45;;;;;;;;;;4978106;28;20062;-63
2023/06/03 01:08:00;;;;;;;17.33;5.63;;;;;;;;;;4969752;28;20050;-62
2023/06/03 01:10:49;;;;;;;19.95;6.30;;;;;;;;;;4953903;28;20058;-63
2023/06/03 01:13:21;;;;;;;13.55;5.68;;;;;;;;;;4984988;28;20065;-62
2023/06/03 01:15:56;;;;;;;14.02;5.70;;;;;;;;;;4989016;28;20054;-63
2023/06/03 01:18:26;;;;;;;9.90;5.30;;;;;;;;;;4985369;28;20043;-62
2023/06/03 01:21:00;;;;;;;14.85;5.93;;;;;;;;;;4941498;28;20055;-62
2023/06/03 01:23:33;;;;;;;17.25;6.70;;;;;;;;;;4951489;28;20069;-63
2023/06/03 01:26:06;;;;;;;18.85;7.35;;;;;;;;;;5028358;28;20058;-63
2023/06/03 01:28:36;;;;;;;17.38;7.13;;;;;;;;;;4979795;28;20049;-62
2023/06/03 01:31:07;;;;;;;16.02;7.53;;;;;;;;;;4979357;28;20045;-63
2023/06/03 01:33:39;;;;;;;17.35;7.45;;;;;;;;;;4994834;28;20049;-63
2023/06/03 01:36:09;;;;;;;14.85;6.07;;;;;;;;;;5011367;28;20061;-64
2023/06/03 01:38:40;;;;;;;14.43;6.13;;;;;;;;;;4997450;28;20049;-63
2023/06/03 01:41:10;;;;;;;15.18;5.25;;;;;;;;;;5008127;28;20062;-63
2023/06/03 01:43:42;;;;;;;13.60;5.88;;;;;;;;;;4969297;28;20047;-63
2023/06/03 01:46:13;;;;;;;11.40;5.32;;;;;;;;;;4937214;28;20043;-63
2023/06/03 01:48:44;;;;;;;15.57;5.97;;;;;;;;;;4887771;29;20064;-63
2023/06/03 01:51:14;;;;;;;14.05;6.45;;;;;;;;;;4965793;28;20059;-62
2023/06/03 01:53:44;;;;;;;14.57;5.93;;;;;;;;;;4934538;29;20521;-63
2023/06/03 01:56:15;;;;;;;12.85;5.53;;;;;;;;;;4892110;29;20052;-63
2023/06/03 01:58:46;;;;;;;18.20;5.80;;;;;;;;;;4915086;29;20052;-62
2023/06/03 02:01:16;;;;;;;14.73;5.53;;;;;;;;;;4915134;29;20044;-63
2023/06/03 02:03:47;;;;;;;12.13;5.65;;;;;;;;;;4915198;29;20052;-62
2023/06/03 02:06:17;;;;;;;15.30;6.65;;;;;;;;;;4915362;29;20059;-62
2023/06/03 02:08:47;;;;;;;15.93;6.35;;;;;;;;;;4896267;29;20056;-63
2023/06/03 02:11:18;;;;;;;17.65;5.68;;;;;;;;;;4864579;29;20048;-66
2023/06/03 02:13:48;;;;;;;15.88;6.55;;;;;;;;;;4877497;29;20057;-62
2023/06/03 02:16:18;;;;;;;13.15;5.45;;;;;;;;;;4821810;29;20066;-63
2023/06/03 02:18:48;;;;;;;17.63;6.00;;;;;;;;;;4800944;29;20523;-62
2023/06/03 02:21:20;;;;;;;18.90;5.78;;;;;;;;;;4830698;29;20507;-63
2023/06/03 02:23:50;;;;;;;14.35;5.18;;;;;;;;;;4830496;29;20080;-62
2023/06/03 02:26:21;;;;;;;11.98;4.63;;;;;;;;;;4839993;29;20061;-62
2023/06/03 02:28:51;;;;;;;14.65;5.85;;;;;;;;;;4840535;29;20053;-63
2023/06/03 02:31:21;;;;;;;10.95;5.18;;;;;;;;;;4801343;29;20062;-63
2023/06/03 02:33:52;;;;;;;14.82;5.65;;;;;;;;;;4797828;29;20130;-64
2023/06/03 02:36:22;;;;;;;11.25;5.43;;;;;;;;;;4803945;29;20063;-66
2023/06/03 02:38:52;;;;;;;14.52;5.93;;;;;;;;;;4816053;29;20070;-64
2023/06/03 02:41:22;;;;;;;16.58;5.60;;;;;;;;;;4820226;29;20062;-63
2023/06/03 02:43:52;;;;;;;14.15;5.35;;;;;;;;;;4821353;29;20050;-63
2023/06/03 02:46:22;;;;;;;13.18;5.65;;;;;;;;;;4806470;29;20052;-64
2023/06/03 02:48:53;;;;;;;12.57;5.65;;;;;;;;;;4778447;29;20063;-62
2023/06/03 02:51:23;;;;;;;17.05;6.45;;;;;;;;;;4844800;29;20569;-63
2023/06/03 02:53:53;;;;;;;12.38;5.72;;;;;;;;;;4847830;29;20057;-63
2023/06/03 02:56:25;;;;;;;12.18;5.93;;;;;;;;;;4861730;29;20069;-63
2023/06/03 02:58:55;;;;;;;17.02;5.82;;;;;;;;;;4876335;29;20074;-64
2023/06/03 03:01:27;;;;;;;13.93;5.70;;;;;;;;;;4885724;29;20056;-63
2023/06/03 03:03:59;;;;;;;13.68;6.93;;;;;;;;;;4904601;29;20068;-61
2023/06/03 03:06:29;;;;;;;14.10;5.93;;;;;;;;;;4896145;29;20056;-61
2023/06/03 03:08:59;;;;;;;15.20;6.25;;;;;;;;;;4867547;29;20064;-61
2023/06/03 03:11:35;;;;;;;14.25;6.00;;;;;;;;;;4896054;29;20051;-61
2023/06/03 03:14:06;;;;;;;16.88;6.18;;;;;;;;;;4914048;29;20078;-61
2023/06/03 03:16:38;;;;;;;15.13;6.00;;;;;;;;;;4894975;29;20555;-61
2023/06/03 03:19:09;;;;;;;15.32;6.60;;;;;;;;;;4868752;29;20546;-61
2023/06/03 03:21:41;;;;;;;14.52;5.95;;;;;;;;;;4886716;29;20053;-62
2023/06/03 03:24:17;;;;;;;16.40;6.15;;;;;;;;;;4894730;29;20052;-61
2023/06/03 03:26:48;;;;;;;14.80;7.00;;;;;;;;;;4872801;29;20410;-60
2023/06/03 03:29:18;;;;;;;11.38;5.75;;;;;;;;;;4894338;29;20056;-60
2023/06/03 03:31:53;;;;;;;14.32;5.93;;;;;;;;;;4890374;29;20052;-61
2023/06/03 03:34:24;;;;;;;13.48;6.63;;;;;;;;;;4898041;29;20056;-61
2023/06/03 03:36:55;;;;;;;14.20;6.18;;;;;;;;;;4882263;29;20544;-61
2023/06/03 03:39:25;;;;;;;20.40;6.28;;;;;;;;;;4913679;29;20071;-60
2023/06/03 03:41:56;;;;;;;12.05;5.70;;;;;;;;;;4844948;29;20060;-62
2023/06/03 03:44:31;;;;;;;14.98;5.88;;;;;;;;;;4873314;29;20069;-60
2023/06/03 03:47:02;;;;;;;16.35;6.30;;;;;;;;;;4838730;29;20396;-61
2023/06/03 03:49:35;;;;;;;;;;;;;;;;;;4813142;29;20062;-61
2023/06/03 03:52:11;;;;;;;17.75;6.30;;;;;;;;;;4844738;29;19925;-61
2023/06/03 03:54:46;;;;;;;13.23;5.70;;;;;;;;;;4808129;29;20065;-61
2023/06/03 03:57:19;;;;;;;16.70;5.85;;;;;;;;;;4838800;29;20056;-60
2023/06/03 03:59:55;;;;;;;14.82;5.88;;;;;;;;;;4857091;29;20054;-60
2023/06/03 04:02:26;;;;;;;18.48;7.00;;;;;;;;;;4825763;29;20058;-61
2023/06/03 04:04:58;;;;;;;13.40;5.22;;;;;;;;;;4789705;29;20059;-61
2023/06/03 04:07:38;;;;;;;12.57;5.97;;;;;;;;;;4786562;29;20063;-60
2023/06/03 04:10:09;;;;;;;15.15;5.65;;;;;;;;;;4766034;30;20548;-61
2023/06/03 04:12:40;;;;;;;;;;;;;;;;;;4814243;29;20061;-61
2023/06/03 04:15:13;;;;;;;13.10;5.28;;;;;;;;;;4856944;29;19931;-61
2023/06/03 04:17:44;;;;;;;14.63;5.35;;;;;;;;;;4856611;29;20049;-61
2023/06/03 04:20:43;;;;;;;13.45;5.78;;;;;;;;;;4841342;29;20050;-60
2023/06/03 04:23:20;;;;;;;16.50;5.32;;;;;;;;;;4872081;29;20506;-60
2023/06/03 04:25:53;;;;;;;13.27;6.00;;;;;;;;;;4892435;29;20051;-61
2023/06/03 04:28:24;;;;;;;16.25;5.55;;;;;;;;;;4875082;29;20202;-61
2023/06/03 04:30:55;;;;;;;14.25;5.60;;;;;;;;;;4855421;29;20077;-62
2023/06/03 04:33:26;;;;;;;19.35;5.60;;;;;;;;;;4873324;29;20053;-61
2023/06/03 04:35:56;;;;;;;9.73;4.82;;;;;;;;;;4860267;29;20049;-61
2023/06/03 04:38:28;;;;;;;14.38;5.20;;;;;;;;;;4861245;29;20552;-61
2023/06/03 04:41:01;;;;;;;14.68;5.13;;;;;;;;;;4902842;29;20060;-61
2023/06/03 04:43:33;;;;;;;13.20;5.65;;;;;;;;;;4875837;29;20129;-61
2023/06/03 04:46:06;;;;;;;11.60;5.28;;;;;;;;;;4834756;29;20500;-61
2023/06/03 04:48:45;;;;;;;15.20;5.40;;;;;;;;;;4820148;29;20068;-61
2023/06/03 04:51:15;;;;;;;14.23;6.32;;;;;;;;;;4856296;29;20054;-61
2023/06/03 04:53:46;;;;;;;14.23;6.00;;;;;;;;;;4871088;29;20096;-61
2023/06/03 04:56:16;;;;;;;14.85;5.25;;;;;;;;;;4912433;29;20056;-62
2023/06/03 04:58:54;;;;;;;12.05;4.95;;;;;;;;;;4877202;29;20053;-61
2023/06/03 05:01:27;;;;;;;11.45;5.45;;;;;;;;;;4900004;29;20056;-66
2023/06/03 05:04:00;;;;;;;13.43;5.50;;;;;;;;;;4877089;29;20403;-63
2023/06/03 05:06:32;;;;;;;14.02;5.88;;;;;;;;;;4880917;29;20049;-63
2023/06/03 05:09:03;;;;;;;16.40;5.47;;;;;;;;;;4871094;29;20061;-63
2023/06/03 05:11:35;;;;;;;13.38;5.05;;;;;;;;;;4854955;29;20049;-64
2023/06/03 05:14:07;;;;;;;13.10;5.50;;;;;;;;;;4887603;29;20052;-63
2023/06/03 05:16:38;;;;;;;13.63;4.97;;;;;;;;;;4845762;29;20053;-63
2023/06/03 05:19:09;;;;;;;14.80;5.82;;;;;;;;;;4874319;29;20060;-64
2023/06/03 05:21:41;;;;;;;16.30;6.47;;;;;;;;;;4864123;29;20499;-63
2023/06/03 05:24:12;;;;;;;13.63;5.20;;;;;;;;;;4846956;29;20089;-64
2023/06/03 05:26:42;;;;;;;13.85;5.60;;;;;;;;;;4871726;29;20439;-63
2023/06/03 05:29:13;;;;;;;13.82;5.63;;;;;;;;;;4870815;29;20392;-64
2023/06/03 05:31:43;;;;;;;11.07;5.07;;;;;;;;;;4829921;29;20059;-64
2023/06/03 05:34:14;;;;;;;14.00;5.55;;;;;;;;;;4834102;29;20059;-63
2023/06/03 05:36:45;;;;;;;13.73;5.63;;;;;;;;;;4833843;29;20054;-64
2023/06/03 05:39:15;;;;;;;14.02;5.07;;;;;;;;;;4850455;29;20061;-64
2023/06/03 05:41:46;;;;;;;11.18;5.18;;;;;;;;;;4901715;29;20053;-63
2023/06/03 05:44:16;;;;;;;12.48;5.10;;;;;;;;;;4868104;29;21077;-63
2023/06/03 05:46:47;;;;;;;16.15;5.18;;;;;;;;;;4899698;29;20053;-65
2023/06/03 05:49:17;;;;;;;14.38;5.32;;;;;;;;;;4895902;29;20045;-63
2023/06/03 05:51:48;;;;;;;12.50;4.65;;;;;;;;;;4886931;29;20402;-67
2023/06/03 05:54:18;;;;;;;13.73;5.03;;;;;;;;;;4921260;29;20060;-63
2023/06/03 05:56:49;;;;;;;12.90;4.53;;;;;;;;;;4881553;29;20056;-64
2023/06/03 05:59:19;;;;;;;12.20;5.07;;;;;;;;;;4897715;29;20049;-63
2023/06/03 06:01:49;;;;;;;11.18;4.68;;;;;;;;;;4906140;29;20069;-63
2023/06/03 06:04:19;;;;;;;14.27;4.82;;;;;;;;;;4841049;29;20066;-63
2023/06/03 06:06:50;;;;;;;12.98;5.10;;;;;;;;;;4887392;29;20630;-63
2023/06/03 06:09:20;;;;;;;11.07;4.85;;;;;;;;;;4877747;29;20554;-64
2023/06/03 06:11:51;;;;;;;11.07;4.57;;;;;;;;;;4876594;29;20506;-66
2023/06/03 06:14:21;;;;;;;10.75;4.63;;;;;;;;;;4859024;29;20072;-63
2023/06/03 06:16:52;;;;;;;11.18;4.65;;;;;;;;;;4876225;29;20051;-63
2023/06/03 06:19:25;;;;;;;13.13;5.35;;;;;;;;;;4877126;29;20061;-63
2023/06/03 06:21:56;;;;;;;13.13;4.85;;;;;;;;;;4877493;29;20402;-64
2023/06/03 06:24:26;;;;;;;10.60;4.50;;;;;;;;;;4905100;29;20044;-63
2023/06/03 06:26:57;;;;;;;11.25;4.82;;;;;;;;;;4890801;29;20494;-63
2023/06/03 06:29:27;;;;;;;11.00;4.78;;;;;;;;;;4892177;29;20063;-65
2023/06/03 06:32:03;;;;;;;9.23;4.65;;;;;;;;;;4942755;28;20496;-63
2023/06/03 06:34:35;;;;;;;12.30;4.50;;;;;;;;;;4885847;29;20057;-62
2023/06/03 06:37:09;;;;;;;10.10;4.25;;;;;;;;;;4894222;29;20092;-64
2023/06/03 06:39:47;;;;;;;12.60;4.53;;;;;;;;;;4890082;29;20409;-63
2023/06/03 06:42:41;;;;;;;12.18;5.03;;;;;;;;;;4914583;29;20048;-63
2023/06/03 06:45:27;;;;;;;10.80;3.95;;;;;;;;;;4903152;29;20596;-64
2023/06/03 06:48:06;;;;;;;10.55;3.67;;;;;;;;;;4895659;29;20069;-63
2023/06/03 06:50:43;;;;;;;10.95;4.38;;;;;;;;;;4896097;29;20055;-63
2023/06/03 06:53:16;;;;;;;9.68;4.18;;;;;;;;;;4858222;29;20173;-64
2023/06/03 06:55:53;;;;;;;8.98;4.57;;;;;;;;;;4854603;29;20054;-63
2023/06/03 06:58:38;;;;;;;10.65;3.92;;;;;;;;;;4854338;29;20053;-63
2023/06/03 07:01:12;;;;;;;11.70;4.47;;;;;;;;;;4871561;29;20061;-63
2023/06/03 07:03:48;;;;;;;10.30;4.20;;;;;;;;;;4857881;29;20064;-63
2023/06/03 07:06:19;;;;;;;11.07;4.10;;;;;;;;;;4839556;29;20061;-65
2023/06/03 07:08:54;;;;;;;10.02;3.83;;;;;;;;;;4854697;29;20399;-65
2023/06/03 07:11:26;;;;;;;10.73;4.05;;;;;;;;;;4857637;29;20050;-64
2023/06/03 07:14:00;;;;;;;10.40;4.65;;;;;;;;;;4854490;29;20054;-65
2023/06/03 07:16:30;;;;;;;10.55;4.30;;;;;;;;;;4848819;29;20522;-63
2023/06/03 07:19:03;;;;;;;11.35;4.28;;;;;;;;;;4872632;29;20057;-64
2023/06/03 07:21:38;;;;;;;11.35;4.57;;;;;;;;;;4876252;29;20048;-63
2023/06/03 07:24:11;;;;;;;10.32;4.38;;;;;;;;;;4860858;29;20522;-64
2023/06/03 07:26:45;;;;;;;10.27;4.30;;;;;;;;;;4855156;29;20042;-63
2023/06/03 07:29:16;;;;;;;9.38;4.13;;;;;;;;;;4865200;29;20534;-63
2023/06/03 07:31:48;;;;;;;10.98;3.85;;;;;;;;;;4860385;29;20053;-64
2023/06/03 07:34:24;;;;;;;10.18;3.60;;;;;;;;;;4842041;29;20081;-63
2023/06/03 07:37:01;;;;;;;9.20;3.85;;;;;;;;;;4823628;29;20082;-63
2023/06/03 07:39:35;;;;;;;14.15;4.30;;;;;;;;;;4871745;29;20054;-63
2023/06/03 07:42:20;;;;;;;8.82;3.80;;;;;;;;;;4857397;29;20422;-64
2023/06/03 07:45:09;;;;;;;10.80;4.35;;;;;;;;;;4874567;29;20049;-65
2023/06/03 07:47:40;;;;;;;11.98;4.70;;;;;;;;;;4858992;29;20057;-64
2023/06/03 07:50:25;;;;;;;8.85;4.30;;;;;;;;;;4874726;29;20072;-63
2023/06/03 07:53:04;;;;;;;11.57;4.28;;;;;;;;;;4894607;29;20063;-63
2023/06/03 07:55:39;;;;;;;;;;;;;;;;;;4895094;29;20072;-63
2023/06/03 07:58:10;;;;;;;10.98;4.85;;;;;;;;;;4894495;29;19923;-63
2023/06/03 08:00:43;;;;;;;9.05;4.30;;;;;;;;;;4857191;29;20073;-64
2023/06/03 08:03:22;;;;;;;11.07;4.78;;;;;;;;;;4857316;29;20064;-63
2023/06/03 08:05:52;;;;;;;13.07;4.22;;;;;;;;;;4894545;29;20505;-64
2023/06/03 08:08:30;;;;;;;9.80;4.05;;;;;;;;;;4896406;29;20053;-63
2023/06/03 08:11:01;;;;;;;11.15;4.95;;;;;;;;;;4932061;29;20063;-64
2023/06/03 08:13:33;;;;;;;10.52;4.13;;;;;;;;;;4933686;29;20167;-63
2023/06/03 08:16:06;;;;;;;17.65;5.03;;;;;;;;;;4967699;28;20059;-64
2023/06/03 08:18:46;;;;;;;17.13;6.15;;;;;;;;;;5010361;28;20049;-64
2023/06/03 08:21:18;;;;;;;15.13;5.00;;;;;;;;;;5036449;28;20063;-64
2023/06/03 08:23:48;;;;;;;13.25;5.40;;;;;;;;;;5037224;28;20499;-63
2023/06/03 08:26:21;;;;;;;12.18;5.28;;;;;;;;;;5071546;28;20048;-63
2023/06/03 08:28:51;;;;;;;11.02;5.40;;;;;;;;;;5071548;28;20047;-63
2023/06/03 08:31:21;;;;;;;13.52;5.72;;;;;;;;;;5071864;28;20396;-63
2023/06/03 08:33:51;;;;;;;10.52;5.32;;;;;;;;;;5071226;28;20052;-64
2023/06/03 08:36:22;;;;;;;12.18;5.57;;;;;;;;;;5054242;28;20048;-64
2023/06/03 08:38:53;;;;;;;13.63;5.72;;;;;;;;;;5071276;28;20053;-63
2023/06/03 08:41:26;;;;;;;16.63;6.28;;;;;;;;;;5003795;28;20079;-64
2023/06/03 08:44:13;;;;;;;13.88;5.82;;;;;;;;;;5071337;28;20041;-63
2023/06/03 08:46:54;;;;;;;13.43;6.25;;;;;;;;;;5071323;28;20051;-64
2023/06/03 08:49:37;;;;;;;14.88;5.78;;;;;;;;;;5071518;28;20052;-63
2023/06/03 08:52:09;;;;;;;13.13;5.57;;;;;;;;;;5036427;28;20051;-64
2023/06/03 08:54:41;;;;;;;13.05;5.47;;;;;;;;;;5071414;28;20045;-63
2023/06/03 08:57:19;;;;;;;14.32;5.72;;;;;;;;;;5018881;28;20076;-63
2023/06/03 08:59:53;;;;;;;12.27;5.13;;;;;;;;;;5038800;28;20049;-64
2023/06/03 09:02:23;;;;;;;17.00;5.55;;;;;;;;;;5071001;28;20492;-64
2023/06/03 09:04:55;;;;;;;11.98;5.95;;;;;;;;;;5071241;28;20048;-63
2023/06/03 09:07:26;;;;;;;12.65;5.70;;;;;;;;;;5002755;28;20045;-63
2023/06/03 09:09:58;;;;;;;12.80;6.07;;;;;;;;;;5071083;28;20056;-64
2023/06/03 09:12:28;;;;;;;13.27;5.25;;;;;;;;;;5071476;28;20059;-63
2023/06/03 09:15:00;;;;;;;15.27;4.75;;;;;;;;;;5052555;28;20520;-64
2023/06/03 09:17:30;;;;;;;12.82;5.47;;;;;;;;;;4971047;28;20488;-64
2023/06/03 09:20:02;;;;;;;13.30;4.93;;;;;;;;;;5071195;28;20400;-63
2023/06/03 09:22:33;;;;;;;13.52;5.13;;;;;;;;;;5028586;28;20050;-63
2023/06/03 09:25:04;;;;;;;12.35;5.05;;;;;;;;;;5028561;28;20061;-64
2023/06/03 09:27:34;;;;;;;12.60;5.18;;;;;;;;;;5012258;28;20433;-64
2023/06/03 09:30:05;;;;;;;11.88;4.95;;;;;;;;;;4995824;28;20084;-64
2023/06/03 09:32:37;;;;;;;12.27;5.10;;;;;;;;;;4979392;28;20064;-63
2023/06/03 09:35:08;;;;;;;12.82;5.10;;;;;;;;;;5028442;28;20068;-63
2023/06/03 09:37:38;;;;;;;12.85;5.15;;;;;;;;;;5012155;28;20049;-64
2023/06/03 09:40:26;;;;;;;14.73;5.97;;;;;;;;;;5028364;28;20054;-63
2023/06/03 09:42:57;;;;;;;11.35;4.85;;;;;;;;;;5011896;28;20049;-63
2023/06/03 09:45:32;;;;;;;13.32;5.10;;;;;;;;;;5012104;28;20061;-63
2023/06/03 09:48:02;;;;;;;11.38;5.00;;;;;;;;;;5012315;28;20057;-64
2023/06/03 09:50:46;;;;;;;13.35;5.57;;;;;;;;;;4995679;28;20088;-64
2023/06/03 09:53:19;;;;;;;12.57;5.13;;;;;;;;;;5028394;28;20049;-63
2023/06/03 09:55:50;;;;;;;12.45;4.82;;;;;;;;;;4995903;28;20065;-65
2023/06/03 09:58:23;;;;;;;13.90;5.15;;;;;;;;;;4995350;28;20072;-64
2023/06/03 10:00:55;;;;;;;12.55;5.72;;;;;;;;;;5062743;28;20435;-62
2023/06/03 10:03:25;;;;;;;12.73;5.85;;;;;;;;;;5036684;28;20053;-64
2023/06/03 10:05:55;;;;;;;13.85;5.80;;;;;;;;;;5070721;28;20376;-63
2023/06/03 10:08:29;;;;;;;12.88;5.57;;;;;;;;;;5072242;28;20052;-62
2023/06/03 10:11:01;;;;;;;13.90;5.68;;;;;;;;;;5022417;28;20504;-64
2023/06/03 10:13:33;;;;;;;16.10;5.68;;;;;;;;;;5073967;28;20049;-62
2023/06/03 10:16:10;;;;;;;14.10;5.22;;;;;;;;;;5039280;28;20049;-63
2023/06/03 10:18:43;;;;;;;11.98;5.20;;;;;;;;;;5038737;28;20056;-63
2023/06/03 10:21:13;;;;;;;12.50;5.15;;;;;;;;;;5073681;28;20075;-63
2023/06/03 10:23:45;;;;;;;11.95;4.82;;;;;;;;;;5022111;28;20055;-63
2023/06/03 10:26:17;;;;;;;12.68;5.43;;;;;;;;;;5073904;28;20049;-63
2023/06/03 10:28:50;;;;;;;12.63;4.72;;;;;;;;;;5073812;28;20052;-63
2023/06/03 10:31:23;;;;;;;14.10;5.93;;;;;;;;;;5021472;28;20048;-64
2023/06/03 10:33:54;;;;;;;13.80;5.40;;;;;;;;;;5073583;28;20040;-64
2023/06/03 10:36:26;;;;;;;11.77;5.30;;;;;;;;;;5073742;28;20051;-63
2023/06/03 10:38:56;;;;;;;12.23;5.78;;;;;;;;;;5050692;28;20041;-64
2023/06/03 10:41:29;;;;;;;13.43;5.57;;;;;;;;;;5017939;28;20056;-63
2023/06/03 10:44:00;;;;;;;14.88;6.15;;;;;;;;;;5001297;28;20045;-63
2023/06/03 10:46:34;;;;;;;12.30;5.22;;;;;;;;;;5030398;28;20421;-65
2023/06/03 10:49:06;;;;;;;14.45;5.90;;;;;;;;;;5030723;28;20060;-63
2023/06/03 10:52:04;;;;;;;14.00;5.93;;;;;;;;;;5030667;28;20053;-62
2023/06/03 10:54:49;;;;;;;13.40;6.53;;;;;;;;;;4965442;28;20049;-61
2023/06/03 10:57:25;;;;;;;14.98;6.05;;;;;;;;;;5030717;28;20056;-61
2023/06/03 10:59:55;;;;;;;13.57;5.80;;;;;;;;;;5013995;28;20056;-60
2023/06/03 11:02:26;;;;;;;14.30;5.93;;;;;;;;;;5030474;28;20041;-61
2023/06/03 11:05:23;;;;;;;15.07;7.38;;;;;;;;;;5030829;28;20053;-61
2023/06/03 11:07:54;;;;;;;14.05;5.57;;;;;;;;;;4971550;28;20412;-61
2023/06/03 11:10:37;;;;;;;12.00;5.30;;;;;;;;;;4939085;28;20774;-61
2023/06/03 11:13:08;;;;;;;13.48;6.10;;;;;;;;;;4939403;28;20051;-61
2023/06/03 11:15:58;;;;;;;22.30;8.05;;;;;;;;;;4957220;28;20055;-61
2023/06/03 11:18:30;;;;;;;20.48;8.38;;;;;;;;;;4958053;28;20051;-62
2023/06/03 11:21:00;;;;;;;21.60;8.07;;;;;;;;;;4990973;28;20054;-61
2023/06/03 11:23:44;;;;;;;17.88;6.57;;;;;;;;;;4979836;28;20060;-61
2023/06/03 11:26:34;;;;;;;10.63;5.55;;;;;;;;;;4993647;28;20443;-61
2023/06/03 11:29:06;;;;;;;13.85;5.95;;;;;;;;;;4977646;28;20069;-63
2023/06/03 11:31:37;;;;;;;13.35;6.30;;;;;;;;;;5010348;28;20363;-62
2023/06/03 11:34:25;;;;;;;11.80;5.93;;;;;;;;;;4977647;28;20046;-62
2023/06/03 11:36:56;;;;;;;12.45;5.63;;;;;;;;;;5009999;28;20537;-64
2023/06/03 11:39:27;;;;;;;13.90;5.95;;;;;;;;;;4978236;28;20064;-62
2023/06/03 11:42:10;;;;;;;13.27;5.50;;;;;;;;;;4957834;28;20447;-63
2023/06/03 11:44:42;;;;;;;9.98;5.07;;;;;;;;;;4979094;28;20095;-63
2023/06/03 11:47:12;;;;;;;11.55;5.38;;;;;;;;;;5049824;28;20404;-61
2023/06/03 11:49:42;;;;;;;12.95;4.88;;;;;;;;;;5049350;28;20145;-62
2023/06/03 11:52:13;;;;;;;10.13;4.95;;;;;;;;;;5049473;28;20056;-62
2023/06/03 11:54:47;;;;;;;14.05;5.22;;;;;;;;;;5016281;28;20061;-62
2023/06/03 11:57:18;;;;;;;9.98;4.80;;;;;;;;;;5049316;28;20072;-62
2023/06/03 11:59:51;;;;;;;11.45;4.80;;;;;;;;;;5029119;28;20405;-62
2023/06/03 12:02:21;;;;;;;11.52;4.85;;;;;;;;;;5029246;28;20509;-63
2023/06/03 12:05:03;;;;;;;9.23;4.53;;;;;;;;;;5046913;28;20052;-63
2023/06/03 12:07:33;;;;;;;14.32;4.60;;;;;;;;;;5049364;28;20508;-64
2023/06/03 12:10:04;;;;;;;9.68;4.72;;;;;;;;;;5049311;28;20048;-63
2023/06/03 12:12:35;;;;;;;10.38;4.70;;;;;;;;;;5040602;28;20539;-61
2023/06/03 12:15:06;;;;;;;17.23;5.03;;;;;;;;;;5039404;28;20045;-62
2023/06/03 12:17:36;;;;;;;12.50;4.88;;;;;;;;;;5037938;28;20050;-63
2023/06/03 12:20:07;;;;;;;12.10;5.07;;;;;;;;;;5051528;28;20512;-63
2023/06/03 12:22:37;;;;;;;10.95;4.70;;;;;;;;;;5024651;28;20045;-62
2023/06/03 12:25:20;;;;;;;12.50;4.43;;;;;;;;;;5023790;28;20634;-65
2023/06/03 12:27:54;;;;;;;11.60;5.18;;;;;;;;;;5022387;28;20065;-63
2023/06/03 12:30:31;;;;;;;9.38;4.60;;;;;;;;;;5057873;28;20052;-62
2023/06/03 12:33:04;;;;;;;12.05;5.15;;;;;;;;;;5016906;28;20060;-63
2023/06/03 12:35:35;;;;;;;10.02;4.85;;;;;;;;;;5036906;28;20045;-63
2023/06/03 12:38:07;;;;;;;10.95;5.60;;;;;;;;;;5022590;28;20052;-63
2023/06/03 12:40:38;;;;;;;11.73;5.75;;;;;;;;;;5048286;28;20045;-63
2023/06/03 12:43:21;;;;;;;10.73;5.50;;;;;;;;;;4983851;28;20056;-62
2023/06/03 12:45:53;;;;;;;11.93;5.40;;;;;;;;;;5049186;28;20049;-63
2023/06/03 12:48:32;;;;;;;12.10;6.32;;;;;;;;;;5032435;28;20064;-62
2023/06/03 12:51:02;;;;;;;14.25;6.50;;;;;;;;;;5048840;28;20053;-63
2023/06/03 12:53:33;;;;;;;60.35;23.45;;;;;;;;;;5016060;28;20060;-63
2023/06/03 12:56:03;;;;;;;16.23;6.75;;;;;;;;;;5048389;28;20404;-62
2023/06/03 12:58:33;;;;;;;16.58;6.72;;;;;;;;;;5048627;28;20505;-62
2023/06/03 13:01:04;;;;;;;12.23;5.82;;;;;;;;;;5048587;28;20528;-65
2023/06/03 13:03:34;;;;;;;7.32;4.28;;;;;;;;;;5048707;28;20528;-63
2023/06/03 13:06:04;;;;;;;5.10;2.63;;;;;;;;;;5048591;28;20045;-62
2023/06/03 13:08:35;;;;;;;5.75;2.38;;;;;;;;;;5015311;28;20072;-63
2023/06/03 13:11:05;;;;;;;7.63;3.72;;;;;;;;;;5016020;28;20061;-63
2023/06/03 13:13:35;;;;;;;4.13;1.85;;;;;;;;;;5015356;28;20045;-63
2023/06/03 13:16:05;;;;;;;5.75;3.00;;;;;;;;;;4998924;28;20072;-63
2023/06/03 13:18:35;;;;;;;7.90;2.80;;;;;;;;;;5011639;28;20519;-63
2023/06/03 13:21:05;;;;;;;14.45;4.05;;;;;;;;;;5018696;28;20508;-62
2023/06/03 13:23:35;;;;;;;5.28;2.30;;;;;;;;;;5035260;28;20059;-63
2023/06/03 13:26:05;;;;;;;5.90;2.90;;;;;;;;;;5068387;28;20483;-63
2023/06/03 13:28:37;;;;;;;5.45;2.83;;;;;;;;;;5051936;28;20388;-63
2023/06/03 13:31:07;;;;;;;5.70;2.75;;;;;;;;;;5070697;28;20048;-63
2023/06/03 13:33:37;;;;;;;5.43;2.10;;;;;;;;;;5069155;28;20064;-63
2023/06/03 13:36:08;;;;;;;5.18;2.35;;;;;;;;;;5018735;28;20424;-64
2023/06/03 13:38:38;;;;;;;4.72;1.90;;;;;;;;;;5070249;28;20052;-62
2023/06/03 13:41:08;;;;;;;4.13;1.80;;;;;;;;;;5070866;28;20044;-62
2023/06/03 13:43:40;;;;;;;6.00;2.28;;;;;;;;;;5038300;28;20476;-62
2023/06/03 13:46:12;;;;;;;5.75;2.30;;;;;;;;;;5040159;28;20503;-62
2023/06/03 13:48:42;;;;;;;3.53;1.58;;;;;;;;;;5022808;28;20063;-62
2023/06/03 13:51:14;;;;;;;5.00;2.03;;;;;;;;;;5006383;28;20057;-63
2023/06/03 13:53:45;;;;;;;3.63;1.60;;;;;;;;;;5038059;28;20064;-62
2023/06/03 13:56:15;;;;;;;3.75;1.60;;;;;;;;;;5039386;28;20064;-62
2023/06/03 13:58:45;;;;;;;3.83;1.85;;;;;;;;;;5073555;28;20492;-63
2023/06/03 14:01:17;;;;;;;3.40;1.42;;;;;;;;;;5074013;28;20048;-62
2023/06/03 14:03:47;;;;;;;2.63;1.50;;;;;;;;;;5073680;28;20515;-62
2023/06/03 14:06:17;;;;;;;3.40;1.48;;;;;;;;;;5021932;28;20071;-62
2023/06/03 14:08:48;;;;;;;2.83;1.58;;;;;;;;;;5006102;28;20063;-63
2023/06/03 14:11:19;;;;;;;3.63;1.40;;;;;;;;;;5073892;28;20045;-65
2023/06/03 14:13:50;;;;;;;6.97;2.60;;;;;;;;;;5054785;28;20062;-64
2023/06/03 14:16:26;;;;;;;2.70;1.40;;;;;;;;;;5073515;28;20054;-64
2023/06/03 14:18:57;;;;;;;4.47;1.60;;;;;;;;;;5073283;28;20036;-64
2023/06/03 14:21:27;;;;;;;4.78;1.70;;;;;;;;;;5021751;28;20067;-64
2023/06/03 14:23:58;;;;;;;7.15;2.00;;;;;;;;;;5037675;28;20067;-65
2023/06/03 14:26:35;;;;;;;3.55;1.30;;;;;;;;;;5073581;28;20048;-65
2023/06/03 14:29:11;;;;;;;6.75;1.40;;;;;;;;;;5041459;28;20059;-65
2023/06/03 14:31:41;;;;;;;3.28;1.25;;;;;;;;;;5073473;28;20041;-66
2023/06/03 14:34:12;;;;;;;3.55;1.83;;;;;;;;;;5073148;28;20057;-67
2023/06/03 14:36:42;;;;;;;3.20;1.30;;;;;;;;;;4990127;28;20058;-65
2023/06/03 14:39:12;;;;;;;3.97;1.40;;;;;;;;;;5026219;28;20542;-65
2023/06/03 14:41:42;;;;;;;2.33;1.25;;;;;;;;;;5011818;28;20073;-65
2023/06/03 14:44:16;;;;;;;4.30;1.48;;;;;;;;;;5010540;28;20050;-65
2023/06/03 14:46:46;;;;;;;2.38;1.27;;;;;;;;;;5011093;28;20065;-64
2023/06/03 14:49:16;;;;;;;4.75;1.60;;;;;;;;;;5010663;28;20050;-66
2023/06/03 14:51:46;;;;;;;2.35;1.48;;;;;;;;;;4979066;28;20501;-65
2023/06/03 14:54:18;;;;;;;2.35;1.00;;;;;;;;;;4919117;29;20052;-66
2023/06/03 14:56:48;;;;;;;3.22;1.33;;;;;;;;;;4936065;29;20047;-64
2023/06/03 14:59:18;;;;;;;4.28;1.50;;;;;;;;;;4952052;28;20078;-65
2023/06/03 15:01:48;;;;;;;2.70;1.10;;;;;;;;;;4952363;29;20408;-65
2023/06/03 15:04:18;;;;;;;3.90;1.40;;;;;;;;;;4951806;29;20145;-67
2023/06/03 15:06:49;;;;;;;3.10;1.27;;;;;;;;;;4941212;28;20059;-64